createdAt,value
2022-07-30T00:05:45.112Z,19.06
2022-07-30T00:15:51.038Z,18.94
2022-07-30T00:25:56.926Z,18.83
2022-07-30T00:36:02.830Z,18.70
2022-07-30T00:46:08.835Z,18.60
2022-07-30T00:56:14.671Z,18.44
2022-07-30T01:06:20.766Z,18.32
2022-07-30T01:16:26.715Z,18.13
2022-07-30T01:26:34.029Z,17.92
2022-07-30T01:36:40.351Z,17.69
2022-07-30T01:46:47.444Z,17.53
2022-07-30T01:56:55.369Z,17.43
2022-07-30T02:07:05.848Z,17.38
2022-07-30T02:17:19.123Z,17.32
2022-07-30T02:27:32.219Z,17.26
2022-07-30T02:37:42.922Z,17.20
2022-07-30T02:47:55.001Z,17.19
2022-07-30T02:58:02.509Z,17.15
2022-07-30T03:08:10.914Z,17.07
2022-07-30T03:18:15.939Z,16.99
2022-07-30T03:28:23.257Z,16.95
2022-07-30T03:38:29.768Z,17.03
2022-07-30T03:48:37.905Z,17.15
2022-07-30T03:58:43.854Z,17.29
2022-07-30T04:08:49.561Z,17.38
2022-07-30T04:18:58.467Z,17.49
2022-07-30T04:29:06.302Z,17.69
2022-07-30T04:39:12.254Z,17.63
2022-07-30T04:49:20.598Z,17.62
2022-07-30T04:59:27.959Z,17.96
2022-07-30T05:09:34.711Z,18.27
2022-07-30T05:19:40.601Z,18.15
2022-07-30T05:29:46.427Z,18.00
2022-07-30T05:39:59.251Z,17.94
2022-07-30T05:50:10.195Z,18.22
2022-07-30T06:00:17.486Z,18.62
2022-07-30T06:10:23.520Z,18.55
2022-07-30T06:20:29.548Z,18.47
2022-07-30T06:30:35.329Z,18.55
2022-07-30T06:40:41.847Z,18.75
2022-07-30T06:50:47.656Z,18.84
2022-07-30T07:00:53.471Z,18.73
2022-07-30T07:10:59.275Z,18.99
2022-07-30T07:21:04.975Z,19.93
2022-07-30T07:31:11.985Z,21.06
2022-07-30T07:41:48.209Z,22.63
2022-07-30T07:51:54.912Z,22.18
2022-07-30T08:02:03.803Z,22.45
2022-07-30T08:12:10.523Z,21.61
2022-07-30T08:22:16.295Z,20.48
2022-07-30T08:32:22.029Z,19.50
2022-07-30T08:42:30.284Z,18.13
2022-07-30T08:52:38.864Z,17.68
2022-07-30T09:02:45.141Z,17.86
2022-07-30T09:12:50.916Z,18.61
2022-07-30T09:22:59.366Z,19.51
2022-07-30T09:33:03.884Z,19.45
2022-07-30T09:43:12.524Z,19.64
2022-07-30T09:53:19.095Z,19.95
2022-07-30T10:03:34.096Z,19.87
2022-07-30T10:13:45.661Z,19.95
2022-07-30T10:23:52.540Z,19.84
2022-07-30T10:33:59.259Z,20.19
2022-07-30T10:44:39.038Z,20.79
2022-07-30T10:54:47.504Z,21.85
2022-07-30T11:05:13.313Z,22.71
2022-07-30T11:15:22.394Z,23.22
2022-07-30T11:25:51.155Z,23.32
2022-07-30T11:36:17.450Z,22.96
2022-07-30T11:46:29.860Z,22.29
2022-07-30T11:56:36.238Z,21.21
2022-07-30T12:06:48.648Z,20.48
2022-07-30T12:16:55.490Z,20.36
2022-07-30T12:27:08.545Z,20.24
2022-07-30T12:37:15.444Z,20.14
2022-07-30T12:47:26.261Z,20.02
2022-07-30T12:57:45.526Z,20.00
2022-07-30T13:08:00.296Z,19.83
2022-07-30T13:18:06.328Z,19.77
2022-07-30T13:28:12.185Z,19.67
2022-07-30T13:38:18.347Z,19.51
2022-07-30T13:48:24.173Z,19.15
2022-07-30T13:58:35.754Z,18.90
2022-07-30T14:08:42.078Z,18.78
2022-07-30T14:18:48.084Z,18.69
2022-07-30T14:28:53.737Z,18.54
2022-07-30T14:39:00.493Z,18.44
2022-07-30T14:49:06.530Z,18.38
2022-07-30T14:59:12.610Z,18.28
2022-07-30T15:09:19.839Z,18.11
2022-07-30T15:19:26.936Z,17.94
2022-07-30T15:29:32.750Z,17.88
2022-07-30T15:39:38.810Z,17.84
2022-07-30T15:49:44.815Z,17.78
2022-07-30T15:59:51.042Z,17.71
2022-07-30T16:09:57.480Z,17.62
2022-07-30T16:20:03.987Z,17.52
2022-07-30T16:30:12.818Z,17.43
2022-07-30T16:40:18.563Z,17.32
2022-07-30T16:50:24.572Z,17.19
2022-07-30T17:00:30.804Z,17.10
2022-07-30T17:10:36.655Z,17.06
2022-07-30T17:20:42.894Z,17.05
2022-07-30T17:30:49.036Z,17.00
2022-07-30T17:40:54.728Z,16.96
2022-07-30T17:51:00.730Z,16.87
2022-07-30T18:01:08.460Z,16.82
2022-07-30T18:11:14.681Z,16.76
2022-07-30T18:21:20.850Z,16.68
2022-07-30T18:31:26.691Z,16.59
2022-07-30T18:41:32.483Z,16.34
2022-07-30T18:51:38.628Z,16.23
2022-07-30T19:01:44.366Z,16.19
2022-07-30T19:11:50.390Z,16.16
2022-07-30T19:21:56.981Z,16.14
2022-07-30T19:32:02.841Z,16.12
2022-07-30T19:42:10.119Z,16.05
2022-07-30T19:52:25.238Z,15.89
2022-07-30T20:02:35.599Z,15.85
2022-07-30T20:12:49.405Z,15.84
2022-07-30T20:22:55.534Z,15.80
2022-07-30T20:33:01.435Z,15.77
2022-07-30T20:43:07.637Z,15.76
2022-07-30T20:53:13.903Z,15.75
2022-07-30T21:03:21.451Z,15.54
2022-07-30T21:13:27.676Z,15.28
2022-07-30T21:23:34.294Z,15.25
2022-07-30T21:33:40.608Z,15.21
2022-07-30T21:43:49.243Z,15.14
2022-07-30T21:53:55.166Z,15.09
2022-07-30T22:04:07.799Z,15.05
2022-07-30T22:14:13.865Z,15.02
2022-07-30T22:24:29.827Z,14.96
2022-07-30T22:34:36.935Z,14.92
2022-07-30T22:44:46.253Z,14.91
2022-07-30T22:54:53.305Z,14.88
2022-07-30T23:04:59.234Z,14.76
2022-07-30T23:15:11.590Z,14.71
2022-07-30T23:25:15.905Z,14.73
2022-07-30T23:35:21.707Z,14.76
2022-07-30T23:45:28.047Z,14.78
2022-07-30T23:55:36.160Z,14.77
